Time;durP1;ratioP1;P1;durP2;ratioP2;P2;SDS_P1;SDS_P2;PMS_P1;PMS_P2;Temp;Humidity;BMP_temperature;BMP_pressure;BME280_temperature;BME280_humidity;BME280_pressure;Samples;Min_cycle;Max_cycle;Signal;HPM_P1;HPM_P2
2021/11/05 00:00:42;;;;;;;0.70;0.60;;;21.40;51.80;;;;;;6269054;28;20043;-64
2021/11/05 00:03:42;;;;;;;0.60;0.60;;;21.40;51.90;;;;;;6268082;28;20025;-64
2021/11/05 00:06:43;;;;;;;0.80;0.65;;;21.40;51.90;;;;;;6268525;28;20226;-64
2021/11/05 00:09:43;;;;;;;0.50;0.50;;;21.40;51.90;;;;;;6266938;28;20021;-64
2021/11/05 00:12:45;;;;;;;0.75;0.60;;;21.40;51.90;;;;;;6267862;28;20037;-65
2021/11/05 00:15:46;;;;;;;0.50;0.40;;;21.40;51.90;;;;;;6267941;28;20033;-64
2021/11/05 00:18:46;;;;;;;0.70;0.60;;;21.40;52.00;;;;;;6251749;28;20053;-64
2021/11/05 00:21:47;;;;;;;0.63;0.50;;;21.40;51.90;;;;;;6243276;28;20029;-64
2021/11/05 00:24:48;;;;;;;0.77;0.70;;;21.40;52.00;;;;;;6235441;28;20038;-64
2021/11/05 00:27:48;;;;;;;0.60;0.50;;;21.40;52.00;;;;;;6242612;28;20033;-64
2021/11/05 00:30:49;;;;;;;0.68;0.60;;;21.40;51.90;;;;;;6234416;28;20029;-64
2021/11/05 00:33:49;;;;;;;0.60;0.60;;;21.40;51.90;;;;;;6267821;28;20393;-64
2021/11/05 00:36:50;;;;;;;0.40;0.38;;;21.40;51.90;;;;;;6267834;28;20445;-64
2021/11/05 00:39:51;;;;;;;0.57;0.50;;;21.40;51.90;;;;;;6267293;28;20403;-65
2021/11/05 00:42:51;;;;;;;0.70;0.50;;;21.40;51.90;;;;;;6267301;28;20025;-65
2021/11/05 00:45:52;;;;;;;0.40;0.40;;;21.40;52.00;;;;;;6266141;28;20025;-64
2021/11/05 00:48:53;;;;;;;0.47;0.40;;;21.40;52.00;;;;;;6266222;28;20108;-64
2021/11/05 00:51:53;;;;;;;1.65;0.52;;;21.40;52.00;;;;;;6258472;28;20030;-65
2021/11/05 00:54:54;;;;;;;0.60;0.40;;;21.40;52.10;;;;;;6242841;28;20386;-64
2021/11/05 00:57:54;;;;;;;1.10;0.50;;;21.40;52.70;;;;;;6259317;28;20021;-64
2021/11/05 01:00:55;;;;;;;0.40;0.40;;;21.40;52.00;;;;;;6267352;28;20363;-64
2021/11/05 01:03:55;;;;;;;0.55;0.50;;;21.40;52.00;;;;;;6267100;28;20237;-64
2021/11/05 01:06:56;;;;;;;0.50;0.50;;;21.40;52.00;;;;;;6267237;28;20111;-64
2021/11/05 01:09:57;;;;;;;0.30;0.30;;;21.40;52.00;;;;;;6265686;28;20086;-64
2021/11/05 01:12:57;;;;;;;0.60;0.40;;;21.40;52.00;;;;;;6252200;28;20495;-64
2021/11/05 01:15:58;;;;;;;0.63;0.50;;;21.40;52.00;;;;;;6242351;28;20037;-64
2021/11/05 01:18:58;;;;;;;0.57;0.50;;;21.40;52.00;;;;;;6248098;28;20017;-64
2021/11/05 01:21:59;;;;;;;0.47;0.40;;;21.40;52.00;;;;;;6241917;28;20322;-64
2021/11/05 01:25:00;;;;;;;1.40;0.63;;;21.40;52.00;;;;;;6245723;28;20036;-64
2021/11/05 01:28:00;;;;;;;0.52;0.40;;;21.40;52.00;;;;;;6266460;28;20036;-64
2021/11/05 01:31:01;;;;;;;0.40;0.40;;;21.40;52.00;;;;;;6237324;28;20426;-64
2021/11/05 01:34:02;;;;;;;0.60;0.60;;;21.40;52.00;;;;;;6242105;28;20101;-64
2021/11/05 01:37:03;;;;;;;0.40;0.40;;;21.40;52.00;;;;;;6254866;28;20083;-64
2021/11/05 01:40:05;;;;;;;0.57;0.40;;;21.40;52.10;;;;;;6267061;28;20040;-64
2021/11/05 01:43:06;;;;;;;0.50;0.50;;;21.40;52.00;;;;;;6247365;28;20908;-64
2021/11/05 01:46:09;;;;;;;0.50;0.40;;;21.40;52.10;;;;;;6245548;28;20033;-64
2021/11/05 01:49:11;;;;;;;0.32;0.32;;;21.40;52.10;;;;;;6266710;28;20079;-65
2021/11/05 01:52:14;;;;;;;0.70;0.40;;;21.40;52.10;;;;;;6266602;28;20040;-66
2021/11/05 01:55:15;;;;;;;0.95;0.50;;;21.40;52.10;;;;;;6266418;28;20032;-64
2021/11/05 01:58:17;;;;;;;0.50;0.50;;;21.40;52.10;;;;;;6266604;28;20107;-64
2021/11/05 02:01:17;;;;;;;0.45;0.30;;;21.40;52.10;;;;;;6262711;28;20021;-64
2021/11/05 02:04:18;;;;;;;0.55;0.50;;;21.40;52.10;;;;;;6266554;28;20519;-64
2021/11/05 02:07:21;;;;;;;0.30;0.30;;;21.40;52.20;;;;;;6252375;28;20586;-64
2021/11/05 02:10:25;;;;;;;0.38;0.38;;;21.40;52.10;;;;;;6246620;28;20070;-64
2021/11/05 02:13:27;;;;;;;0.45;0.40;;;21.40;52.10;;;;;;6246321;28;20045;-64
2021/11/05 02:16:30;;;;;;;0.30;0.28;;;21.40;52.10;;;;;;6246192;28;20018;-64
2021/11/05 02:19:32;;;;;;;0.38;0.38;;;21.40;52.10;;;;;;6246181;28;20022;-64
2021/11/05 02:22:33;;;;;;;0.40;0.40;;;21.40;52.10;;;;;;6245765;28;20033;-64
2021/11/05 02:25:34;;;;;;;0.47;0.30;;;21.40;52.10;;;;;;6253639;28;20549;-64
2021/11/05 02:28:39;;;;;;;0.43;0.35;;;21.40;52.10;;;;;;6269408;28;20063;-64
2021/11/05 02:31:40;;;;;;;;;;;21.40;52.10;;;;;;6246265;28;20028;-64
2021/11/05 02:34:41;;;;;;;0.40;0.40;;;21.40;52.20;;;;;;6270551;28;20011;-64
2021/11/05 02:37:42;;;;;;;0.20;0.20;;;21.30;52.20;;;;;;6270753;28;20017;-64
2021/11/05 02:40:43;;;;;;;0.75;0.40;;;21.40;52.20;;;;;;6269304;28;20106;-64
2021/11/05 02:43:43;;;;;;;0.20;0.20;;;21.40;52.20;;;;;;6245362;28;20033;-64
2021/11/05 02:46:44;;;;;;;0.52;0.40;;;21.30;52.20;;;;;;6253932;28;20099;-64
2021/11/05 02:49:46;;;;;;;0.57;0.43;;;21.40;52.20;;;;;;6270194;28;20047;-64
2021/11/05 02:52:47;;;;;;;0.50;0.35;;;21.30;52.20;;;;;;6244211;28;20033;-64
2021/11/05 02:55:47;;;;;;;0.40;0.40;;;21.40;52.30;;;;;;6220890;28;20018;-64
2021/11/05 02:58:49;;;;;;;0.30;0.30;;;21.40;52.30;;;;;;6268256;28;20028;-64
2021/11/05 03:01:49;;;;;;;0.38;0.35;;;21.30;52.20;;;;;;6269779;28;20442;-64
2021/11/05 03:04:50;;;;;;;0.52;0.40;;;21.40;52.30;;;;;;6270094;28;20053;-64
2021/11/05 03:07:52;;;;;;;0.73;0.40;;;21.30;52.20;;;;;;6269660;28;20028;-64
2021/11/05 03:10:53;;;;;;;0.30;0.30;;;21.40;52.20;;;;;;6269723;28;20035;-64
2021/11/05 03:13:54;;;;;;;0.43;0.30;;;21.40;52.20;;;;;;6249447;28;20103;-64
2021/11/05 03:16:55;;;;;;;0.35;0.22;;;21.30;52.90;;;;;;6246284;28;20018;-64
2021/11/05 03:19:56;;;;;;;0.40;0.30;;;21.30;52.30;;;;;;6244875;28;20075;-64
2021/11/05 03:22:56;;;;;;;0.47;0.40;;;21.30;52.30;;;;;;6244263;28;20368;-64
2021/11/05 03:25:57;;;;;;;0.30;0.30;;;21.40;52.40;;;;;;6249564;28;20025;-64
2021/11/05 03:28:57;;;;;;;0.50;0.50;;;21.30;52.30;;;;;;6266736;28;20398;-64
2021/11/05 03:31:58;;;;;;;0.20;0.20;;;21.30;52.40;;;;;;6246087;28;20360;-64
2021/11/05 03:34:59;;;;;;;0.40;0.40;;;21.30;52.40;;;;;;6268718;28;20029;-64
2021/11/05 03:37:59;;;;;;;0.40;0.30;;;21.30;52.40;;;;;;6248744;28;20398;-64
2021/11/05 03:41:02;;;;;;;0.30;0.30;;;21.30;52.40;;;;;;6247614;28;20091;-64
2021/11/05 03:44:03;;;;;;;0.35;0.30;;;21.30;52.30;;;;;;6268939;28;20025;-64
2021/11/05 03:47:04;;;;;;;0.50;0.40;;;21.30;52.40;;;;;;6268575;28;20406;-64
2021/11/05 03:50:05;;;;;;;0.47;0.30;;;21.40;52.50;;;;;;6268761;28;20033;-64
2021/11/05 03:53:06;;;;;;;0.40;0.40;;;21.30;52.40;;;;;;6268348;28;20017;-64
2021/11/05 03:56:07;;;;;;;0.30;0.30;;;21.30;52.40;;;;;;6266818;28;20172;-64
2021/11/05 04:03:04;;;;;;;0.65;0.65;;;21.30;52.40;;;;;;6261383;28;20025;-64
2021/11/05 04:06:05;;;;;;;0.30;0.30;;;21.30;52.30;;;;;;6267972;28;20020;-65
2021/11/05 04:09:06;;;;;;;0.30;0.30;;;21.40;52.40;;;;;;6250049;28;20036;-65
2021/11/05 04:12:08;;;;;;;0.22;0.22;;;21.30;52.30;;;;;;6231540;28;20045;-64
2021/11/05 04:15:09;;;;;;;0.30;0.30;;;21.30;52.30;;;;;;6268412;28;20064;-64
2021/11/05 04:18:09;;;;;;;0.30;0.20;;;21.30;52.40;;;;;;6254344;28;20022;-65
2021/11/05 04:21:10;;;;;;;0.65;0.40;;;21.30;52.40;;;;;;6243687;28;20032;-65
2021/11/05 04:24:11;;;;;;;0.50;0.40;;;21.40;52.50;;;;;;6265084;28;20151;-65
2021/11/05 04:27:11;;;;;;;0.30;0.30;;;21.30;52.50;;;;;;6267960;28;20032;-65
2021/11/05 04:30:14;;;;;;;0.40;0.30;;;21.30;52.50;;;;;;6256841;28;20076;-65
2021/11/05 04:33:15;;;;;;;0.20;0.20;;;21.30;52.50;;;;;;6266319;28;20021;-65
2021/11/05 04:36:17;;;;;;;1.17;0.30;;;21.30;52.50;;;;;;6267997;28;20025;-65
2021/11/05 04:39:19;;;;;;;1.05;0.50;;;21.30;52.50;;;;;;6244533;28;20021;-65
2021/11/05 04:42:20;;;;;;;0.20;0.20;;;21.30;52.50;;;;;;6257192;28;20024;-65
2021/11/05 04:45:21;;;;;;;0.20;0.20;;;21.30;52.60;;;;;;6268015;28;20390;-65
2021/11/05 04:48:22;;;;;;;0.30;0.30;;;21.30;52.50;;;;;;6245458;28;20277;-65
2021/11/05 04:51:22;;;;;;;0.25;0.25;;;21.30;52.50;;;;;;6247610;28;20395;-65
2021/11/05 04:54:23;;;;;;;0.63;0.32;;;21.30;52.60;;;;;;6267945;28;20029;-65
2021/11/05 04:57:24;;;;;;;0.38;0.30;;;21.30;52.50;;;;;;6266359;28;20116;-65
2021/11/05 05:00:26;;;;;;;0.52;0.43;;;21.30;52.40;;;;;;6267469;28;20409;-65
2021/11/05 05:03:26;;;;;;;0.20;0.20;;;21.30;52.40;;;;;;6267295;28;20405;-65
2021/11/05 05:06:27;;;;;;;0.40;0.38;;;21.30;52.40;;;;;;6267584;28;20025;-65
2021/11/05 05:09:27;;;;;;;0.28;0.28;;;21.30;52.50;;;;;;6267638;28;20346;-65
2021/11/05 05:12:28;;;;;;;0.30;0.30;;;21.30;52.50;;;;;;6267297;28;20041;-65
2021/11/05 05:15:28;;;;;;;0.40;0.40;;;21.30;52.50;;;;;;6267646;28;20029;-65
2021/11/05 05:18:29;;;;;;;0.52;0.32;;;21.30;52.50;;;;;;6257000;28;20030;-64
2021/11/05 05:21:30;;;;;;;0.32;0.32;;;21.30;52.50;;;;;;6265870;28;20059;-64
2021/11/05 05:24:30;;;;;;;0.22;0.22;;;21.30;52.50;;;;;;6240904;28;20033;-65
2021/11/05 05:27:31;;;;;;;0.13;0.13;;;21.30;52.50;;;;;;6239217;28;20421;-65
2021/11/05 05:30:33;;;;;;;0.30;0.30;;;21.30;52.50;;;;;;6217131;28;20026;-65
2021/11/05 05:33:36;;;;;;;0.30;0.30;;;21.30;52.50;;;;;;6218183;28;20254;-65
2021/11/05 05:36:36;;;;;;;0.40;0.30;;;21.30;52.60;;;;;;6235860;28;20036;-65
2021/11/05 05:39:37;;;;;;;0.30;0.30;;;21.30;52.50;;;;;;6267304;28;20486;-65
2021/11/05 05:42:38;;;;;;;0.52;0.40;;;21.30;52.60;;;;;;6271075;28;20039;-64
2021/11/05 05:45:39;;;;;;;0.40;0.32;;;21.30;52.60;;;;;;6270803;28;20032;-64
2021/11/05 05:48:39;;;;;;;1.13;0.40;;;21.30;52.50;;;;;;6267888;28;20025;-65
2021/11/05 05:51:40;;;;;;;0.20;0.20;;;21.30;52.50;;;;;;6270558;28;20033;-65
2021/11/05 05:54:40;;;;;;;0.20;0.20;;;21.30;52.50;;;;;;6271329;28;20021;-64
2021/11/05 05:57:42;;;;;;;0.40;0.30;;;21.40;52.50;;;;;;6271666;28;20400;-65
2021/11/05 06:00:42;;;;;;;0.20;0.20;;;21.30;52.50;;;;;;6269881;28;20112;-65
2021/11/05 06:03:43;;;;;;;0.30;0.28;;;21.30;52.60;;;;;;6246355;28;20445;-65
2021/11/05 06:06:44;;;;;;;0.20;0.20;;;21.30;52.50;;;;;;6250962;28;20402;-65
2021/11/05 06:09:45;;;;;;;0.25;0.25;;;21.30;52.50;;;;;;6259366;28;20391;-65
2021/11/05 06:12:45;;;;;;;0.32;0.30;;;21.30;52.50;;;;;;6257715;28;20040;-65
2021/11/05 06:15:46;;;;;;;0.30;0.30;;;21.30;52.50;;;;;;6271008;28;20032;-65
2021/11/05 06:18:47;;;;;;;0.47;0.40;;;21.30;52.50;;;;;;6252219;28;20029;-65
2021/11/05 06:21:47;;;;;;;0.50;0.30;;;21.30;52.50;;;;;;6248247;28;20072;-65
2021/11/05 06:24:48;;;;;;;0.30;0.22;;;21.40;52.60;;;;;;6268953;28;20486;-65
2021/11/05 06:27:48;;;;;;;0.30;0.30;;;21.30;52.60;;;;;;6259946;28;20033;-65
2021/11/05 06:30:49;;;;;;;0.40;0.20;;;21.30;52.60;;;;;;6242554;28;20482;-65
2021/11/05 06:33:50;;;;;;;0.63;0.40;;;21.30;52.60;;;;;;6245688;28;20064;-65
2021/11/05 06:36:50;;;;;;;0.20;0.20;;;21.40;52.60;;;;;;6257077;28;20439;-65
2021/11/05 06:39:51;;;;;;;0.20;0.20;;;21.40;52.60;;;;;;6271005;28;20040;-65
2021/11/05 06:42:52;;;;;;;0.40;0.40;;;21.30;52.50;;;;;;6242485;28;20034;-65
2021/11/05 06:45:53;;;;;;;0.25;0.22;;;21.40;52.60;;;;;;6224268;28;20084;-65
2021/11/05 06:48:53;;;;;;;0.30;0.30;;;21.40;52.60;;;;;;6270560;28;20533;-65
2021/11/05 06:51:55;;;;;;;0.55;0.30;;;21.40;52.60;;;;;;6269720;28;20033;-65
2021/11/05 06:54:56;;;;;;;0.47;0.43;;;21.40;52.60;;;;;;6270335;28;20020;-65
2021/11/05 06:57:56;;;;;;;0.35;0.30;;;21.40;52.60;;;;;;6269844;28;20087;-65
2021/11/05 07:00:57;;;;;;;0.28;0.28;;;21.40;52.60;;;;;;6249596;28;20041;-65
2021/11/05 07:03:57;;;;;;;0.20;0.20;;;21.40;52.60;;;;;;6241497;28;20033;-65
2021/11/05 07:06:59;;;;;;;0.22;0.22;;;21.40;52.60;;;;;;6238333;28;20025;-65
2021/11/05 07:09:59;;;;;;;0.30;0.30;;;21.40;52.60;;;;;;6250484;28;20025;-66
2021/11/05 07:13:00;;;;;;;0.25;0.25;;;21.40;52.60;;;;;;6245822;28;20049;-65
2021/11/05 07:16:03;;;;;;;0.28;0.28;;;21.40;52.60;;;;;;6247465;28;20440;-65
2021/11/05 07:19:04;;;;;;;0.60;0.30;;;21.40;52.60;;;;;;6252990;28;20391;-65
2021/11/05 07:22:05;;;;;;;0.45;0.40;;;21.40;52.70;;;;;;6249033;28;20056;-65
2021/11/05 07:25:08;;;;;;;0.95;0.40;;;21.40;52.70;;;;;;6272187;28;20680;-65
2021/11/05 07:28:09;;;;;;;0.30;0.30;;;21.40;52.70;;;;;;6271797;28;20440;-66
2021/11/05 07:31:09;;;;;;;0.30;0.30;;;21.40;52.70;;;;;;6258087;28;20033;-66
2021/11/05 07:34:11;;;;;;;0.73;0.35;;;21.40;52.70;;;;;;6246591;28;20083;-65
2021/11/05 07:37:15;;;;;;;0.20;0.20;;;21.40;52.70;;;;;;6246824;28;20029;-65
2021/11/05 07:40:16;;;;;;;0.40;0.30;;;21.40;52.70;;;;;;6246806;28;20022;-65
2021/11/05 07:43:16;;;;;;;0.57;0.40;;;21.40;52.70;;;;;;6246079;28;20545;-65
2021/11/05 07:46:17;;;;;;;0.45;0.40;;;21.40;52.70;;;;;;6246533;28;20029;-65
2021/11/05 07:49:18;;;;;;;0.40;0.38;;;21.40;52.70;;;;;;6253989;28;20498;-65
2021/11/05 07:52:19;;;;;;;0.30;0.30;;;21.40;52.70;;;;;;6269859;28;20025;-65
2021/11/05 07:55:20;;;;;;;0.35;0.35;;;21.40;52.80;;;;;;6271104;28;20021;-66
2021/11/05 07:58:21;;;;;;;0.52;0.40;;;21.40;52.70;;;;;;6250513;28;20025;-65
2021/11/05 08:01:22;;;;;;;0.52;0.40;;;21.40;52.70;;;;;;6249412;28;20024;-65
2021/11/05 08:04:24;;;;;;;0.60;0.40;;;21.40;52.70;;;;;;6270093;28;20402;-65
2021/11/05 08:07:25;;;;;;;0.20;0.20;;;21.40;53.50;;;;;;6262036;28;20025;-66
2021/11/05 08:10:26;;;;;;;0.22;0.20;;;21.40;52.80;;;;;;6260995;28;20042;-66
2021/11/05 08:13:26;;;;;;;0.30;0.30;;;21.40;52.80;;;;;;6270816;28;20431;-66
2021/11/05 08:16:27;;;;;;;0.70;0.47;;;21.40;52.80;;;;;;6269839;28;20029;-65
2021/11/05 08:19:28;;;;;;;0.30;0.30;;;21.40;52.80;;;;;;6249842;28;20559;-65
2021/11/05 08:22:28;;;;;;;0.22;0.22;;;21.40;52.80;;;;;;6253311;28;20025;-65
2021/11/05 08:25:30;;;;;;;0.38;0.30;;;21.40;52.80;;;;;;6262743;28;20393;-65
2021/11/05 08:28:32;;;;;;;0.20;0.20;;;21.40;52.80;;;;;;6236949;28;20042;-65
2021/11/05 08:31:33;;;;;;;0.45;0.40;;;21.40;52.80;;;;;;6242062;28;20486;-65
2021/11/05 08:34:34;;;;;;;0.57;0.43;;;21.40;52.80;;;;;;6270761;28;20505;-65
2021/11/05 08:37:35;;;;;;;0.38;0.38;;;21.40;52.80;;;;;;6253464;28;20049;-66
2021/11/05 08:40:35;;;;;;;0.57;0.35;;;21.40;52.80;;;;;;6245640;28;20033;-65
2021/11/05 08:43:36;;;;;;;0.50;0.30;;;21.40;52.80;;;;;;6269516;28;20215;-65
2021/11/05 08:46:37;;;;;;;0.47;0.40;;;21.40;52.80;;;;;;6270157;28;20126;-66
2021/11/05 08:49:38;;;;;;;0.38;0.35;;;21.40;52.90;;;;;;6269894;28;20112;-66
2021/11/05 08:52:39;;;;;;;0.50;0.20;;;21.40;52.80;;;;;;6270033;28;20418;-66
2021/11/05 08:55:40;;;;;;;0.77;0.38;;;21.40;52.80;;;;;;6270153;28;20103;-65
2021/11/05 08:58:43;;;;;;;0.70;0.30;;;21.40;52.80;;;;;;6248880;28;20032;-70
2021/11/05 09:01:44;;;;;;;0.20;0.20;;;21.40;52.80;;;;;;6250477;28;20052;-66
2021/11/05 09:04:44;;;;;;;3.30;0.40;;;21.40;52.90;;;;;;6241557;28;20487;-66
2021/11/05 09:07:45;;;;;;;3.90;1.00;;;21.40;52.60;;;;;;6256291;28;20029;-66
2021/11/05 09:10:48;;;;;;;5.60;1.10;;;21.40;51.90;;;;;;6251057;28;20055;-66
2021/11/05 09:13:50;;;;;;;1.00;0.80;;;21.40;51.80;;;;;;6244385;28;20095;-66
2021/11/05 09:16:51;;;;;;;3.55;0.75;;;21.40;52.10;;;;;;6247603;28;20073;-66
2021/11/05 09:19:52;;;;;;;0.57;0.50;;;21.40;52.20;;;;;;6252328;28;20420;-66
2021/11/05 09:22:52;;;;;;;4.50;0.80;;;21.40;52.20;;;;;;6225165;28;20018;-66
2021/11/05 09:25:54;;;;;;;2.83;0.80;;;21.40;52.20;;;;;;6245052;28;20091;-66
2021/11/05 09:28:55;;;;;;;3.97;0.80;;;21.40;52.20;;;;;;6273969;28;20021;-66
2021/11/05 09:31:55;;;;;;;8.75;0.80;;;21.40;52.20;;;;;;6257208;28;20095;-66
2021/11/05 09:34:56;;;;;;;1.52;0.75;;;21.40;52.20;;;;;;6251424;28;20036;-66
2021/11/05 09:37:58;;;;;;;1.98;0.82;;;21.40;52.20;;;;;;6268521;28;20529;-66
2021/11/05 09:40:59;;;;;;;2.40;0.95;;;21.40;52.30;;;;;;6251191;28;20029;-70
2021/11/05 09:44:00;;;;;;;3.42;0.82;;;21.40;52.30;;;;;;6271834;28;20036;-67
2021/11/05 09:47:04;;;;;;;0.82;0.73;;;21.40;52.40;;;;;;6255639;28;20101;-67
2021/11/05 09:50:05;;;;;;;1.98;0.80;;;21.40;52.10;;;;;;6253217;28;20083;-66
2021/11/05 09:53:07;;;;;;;2.90;0.95;;;21.40;52.10;;;;;;6263289;28;20033;-66
2021/11/05 09:56:17;;;;;;;2.70;0.80;;;21.40;52.10;;;;;;6259278;28;20466;-66
2021/11/05 09:59:18;;;;;;;2.17;0.90;;;21.40;52.20;;;;;;6248141;28;20025;-67
2021/11/05 10:02:19;;;;;;;4.93;0.80;;;21.40;52.20;;;;;;6259152;28;20080;-67
2021/11/05 10:05:21;;;;;;;2.38;0.70;;;21.40;52.20;;;;;;6248360;28;20033;-65
2021/11/05 10:08:33;;;;;;;2.63;0.90;;;21.50;52.30;;;;;;6262400;28;20083;-65
2021/11/05 10:11:34;;;;;;;1.17;0.70;;;21.40;52.20;;;;;;6270847;28;20041;-65
2021/11/05 10:14:34;;;;;;;1.83;0.88;;;21.50;52.30;;;;;;6269620;28;20025;-65
2021/11/05 10:17:36;;;;;;;0.85;0.63;;;21.40;52.20;;;;;;6262594;28;20478;-70
2021/11/05 10:20:37;;;;;;;4.63;0.82;;;21.40;52.20;;;;;;6242287;28;20108;-67
2021/11/05 10:23:40;;;;;;;2.45;0.60;;;21.50;52.40;;;;;;6261006;28;20494;-65
2021/11/05 10:26:41;;;;;;;2.60;1.10;;;21.40;52.40;;;;;;6261509;28;20390;-65
2021/11/05 10:29:42;;;;;;;1.70;0.93;;;21.40;52.10;;;;;;6266746;28;20041;-65
2021/11/05 10:32:54;;;;;;;3.80;0.82;;;21.40;52.10;;;;;;6266890;28;20029;-65
2021/11/05 10:36:01;;;;;;;1.88;0.65;;;21.40;52.10;;;;;;6273244;28;20017;-65
2021/11/05 10:39:04;;;;;;;2.33;0.80;;;21.40;52.10;;;;;;6257017;28;20029;-65
2021/11/05 10:42:05;;;;;;;3.92;0.80;;;21.40;52.20;;;;;;6259131;28;20470;-65
2021/11/05 10:45:17;;;;;;;1.45;0.63;;;21.40;52.20;;;;;;6272927;28;20056;-65
2021/11/05 10:48:19;;;;;;;1.23;0.60;;;21.50;52.30;;;;;;6272419;28;20086;-65
2021/11/05 10:51:22;;;;;;;1.25;0.65;;;21.40;52.20;;;;;;6272429;28;20378;-65
2021/11/05 10:54:23;;;;;;;3.45;0.77;;;21.40;52.20;;;;;;6252509;28;20017;-65
2021/11/05 10:57:44;;;;;;;0.95;0.75;;;21.40;52.20;;;;;;6260431;28;20055;-65
2021/11/05 11:00:46;;;;;;;2.03;1.02;;;21.40;52.20;;;;;;6272782;28;20028;-65
2021/11/05 11:03:49;;;;;;;1.77;0.80;;;21.40;52.30;;;;;;6272652;28;20486;-65
2021/11/05 11:06:52;;;;;;;1.63;0.80;;;21.40;52.30;;;;;;6272821;28;20028;-65
2021/11/05 11:09:52;;;;;;;1.40;0.70;;;21.40;52.30;;;;;;6272005;28;20504;-65
2021/11/05 11:12:53;;;;;;;2.55;0.75;;;21.50;52.50;;;;;;6271988;28;20041;-65
2021/11/05 11:15:54;;;;;;;1.15;0.70;;;21.40;52.40;;;;;;6271986;28;20474;-65
2021/11/05 11:19:00;;;;;;;1.40;0.98;;;21.40;52.40;;;;;;6256577;28;20021;-65
2021/11/05 11:22:07;;;;;;;0.55;0.55;;;21.40;52.40;;;;;;6252155;28;20490;-65
2021/11/05 11:25:08;;;;;;;1.73;0.70;;;21.40;52.50;;;;;;6267525;28;20032;-65
2021/11/05 11:28:10;;;;;;;1.67;0.80;;;21.40;52.50;;;;;;6247320;28;20110;-65
2021/11/05 11:31:12;;;;;;;0.60;0.50;;;21.40;52.50;;;;;;6240899;28;20048;-65
2021/11/05 11:34:14;;;;;;;1.42;0.60;;;21.40;52.50;;;;;;6271792;28;20052;-65
2021/11/05 11:37:15;;;;;;;1.38;0.60;;;21.40;52.50;;;;;;6248283;28;20435;-66
2021/11/05 11:40:17;;;;;;;0.98;0.60;;;21.40;52.50;;;;;;6224482;28;20040;-65
2021/11/05 11:43:21;;;;;;;0.40;0.40;;;21.40;53.20;;;;;;6264072;28;20020;-65
2021/11/05 11:46:23;;;;;;;0.88;0.70;;;21.40;52.60;;;;;;6265873;28;20036;-65
2021/11/05 11:49:40;;;;;;;1.23;0.68;;;21.40;52.60;;;;;;6245194;28;20300;-65
2021/11/05 11:52:40;;;;;;;1.35;0.60;;;21.40;52.60;;;;;;6261745;28;20031;-65
2021/11/05 11:55:41;;;;;;;1.33;0.60;;;21.40;52.60;;;;;;6271166;28;20056;-65
2021/11/05 11:58:56;;;;;;;0.50;0.40;;;21.40;52.60;;;;;;6271167;28;20110;-65
2021/11/05 12:01:57;;;;;;;1.15;0.63;;;21.40;52.60;;;;;;6269600;28;20040;-65
2021/11/05 12:05:02;;;;;;;0.57;0.40;;;21.50;52.70;;;;;;6271273;28;20493;-65
2021/11/05 12:08:12;;;;;;;;;;;21.40;52.60;;;;;;6271260;28;20074;-65
2021/11/05 12:11:20;;;;;;;0.60;0.50;;;21.40;52.60;;;;;;6270461;28;19912;-66
2021/11/05 12:14:21;;;;;;;0.50;0.50;;;21.40;52.60;;;;;;6270723;28;20068;-66
2021/11/05 12:17:22;;;;;;;0.50;0.50;;;21.40;52.60;;;;;;6267231;28;20525;-65
2021/11/05 12:20:37;;;;;;;0.82;0.55;;;21.40;52.70;;;;;;6246302;28;20079;-66
2021/11/05 12:23:37;;;;;;;0.52;0.32;;;21.40;52.70;;;;;;6248703;28;20029;-66
2021/11/05 12:26:44;;;;;;;0.80;0.50;;;21.40;52.70;;;;;;6269559;28;20118;-65
2021/11/05 12:29:49;;;;;;;1.20;0.60;;;21.40;52.70;;;;;;6256900;28;20041;-65
2021/11/05 12:32:50;;;;;;;0.73;0.40;;;21.40;52.70;;;;;;6260718;28;20512;-65
2021/11/05 12:35:52;;;;;;;1.00;0.60;;;21.40;52.80;;;;;;6268595;28;20022;-65
2021/11/05 12:39:05;;;;;;;0.52;0.50;;;21.40;52.80;;;;;;6269986;28;20099;-65
2021/11/05 12:42:08;;;;;;;1.15;0.60;;;21.40;52.80;;;;;;6257745;28;20053;-66
2021/11/05 12:45:08;;;;;;;0.52;0.50;;;21.40;52.80;;;;;;6245395;28;20040;-65
2021/11/05 12:48:09;;;;;;;0.90;0.57;;;21.40;52.80;;;;;;6236049;28;20022;-65
2021/11/05 12:51:15;;;;;;;1.40;0.60;;;21.40;52.80;;;;;;6225640;28;20028;-65
2021/11/05 12:54:25;;;;;;;1.10;0.60;;;21.40;52.80;;;;;;6270480;28;20036;-66
2021/11/05 12:57:26;;;;;;;0.30;0.30;;;21.40;52.80;;;;;;6270039;28;20028;-65
2021/11/05 13:00:30;;;;;;;1.38;0.40;;;21.40;52.80;;;;;;6268647;28;20090;-66
2021/11/05 13:03:31;;;;;;;0.97;0.53;;;21.40;52.80;;;;;;6239617;28;20037;-65
2021/11/05 13:06:40;;;;;;;0.80;0.50;;;21.50;52.90;;;;;;6229543;28;20542;-65
2021/11/05 13:09:42;;;;;;;0.60;0.50;;;21.50;52.90;;;;;;6270482;28;20021;-66
2021/11/05 13:12:50;;;;;;;0.98;0.68;;;21.40;52.80;;;;;;6256682;28;20037;-65
2021/11/05 13:15:52;;;;;;;0.65;0.45;;;21.40;52.80;;;;;;6245609;28;20502;-66
2021/11/05 13:18:53;;;;;;;0.80;0.50;;;21.50;52.90;;;;;;6250755;28;20064;-66
2021/11/05 13:22:02;;;;;;;0.40;0.40;;;21.40;52.80;;;;;;6248086;28;20036;-65
2021/11/05 13:25:25;;;;;;;0.50;0.40;;;21.40;52.80;;;;;;6265816;28;20043;-65
2021/11/05 13:28:27;;;;;;;0.57;0.45;;;21.40;52.80;;;;;;6220780;28;20049;-66
2021/11/05 13:31:28;;;;;;;0.50;0.50;;;21.40;52.80;;;;;;6247741;28;20036;-65
2021/11/05 13:34:36;;;;;;;1.60;0.60;;;21.40;52.80;;;;;;6269950;28;20021;-65
2021/11/05 13:37:37;;;;;;;0.73;0.50;;;21.40;52.80;;;;;;6269524;28;20556;-66
2021/11/05 13:40:52;;;;;;;0.70;0.52;;;21.50;52.90;;;;;;6270432;28;20024;-65
2021/11/05 13:43:56;;;;;;;0.55;0.50;;;21.50;52.90;;;;;;6269311;28;20029;-66
2021/11/05 13:46:57;;;;;;;0.43;0.40;;;21.50;52.80;;;;;;6259940;28;20029;-65
2021/11/05 13:50:19;;;;;;;1.27;0.68;;;21.40;52.80;;;;;;6244526;28;20032;-65
2021/11/05 13:53:21;;;;;;;0.88;0.60;;;21.40;52.70;;;;;;6264941;28;20033;-66
2021/11/05 13:56:26;;;;;;;0.50;0.50;;;21.50;52.80;;;;;;6265447;28;20029;-66
2021/11/05 13:59:28;;;;;;;;;;;21.50;52.80;;;;;;6245519;28;20026;-66
2021/11/05 14:02:29;;;;;;;0.50;0.50;;;21.50;52.80;;;;;;6259327;28;19917;-66
2021/11/05 14:05:30;;;;;;;0.40;0.40;;;21.50;52.80;;;;;;6273852;28;20462;-66
2021/11/05 14:08:31;;;;;;;0.50;0.50;;;21.50;52.90;;;;;;6253611;28;20037;-65
2021/11/05 14:11:36;;;;;;;0.47;0.47;;;21.50;52.90;;;;;;6248365;28;20469;-65
2021/11/05 14:14:37;;;;;;;0.40;0.30;;;21.50;52.90;;;;;;6270399;28;20027;-65
2021/11/05 14:17:44;;;;;;;0.75;0.50;;;21.50;52.90;;;;;;6272807;28;20025;-65
2021/11/05 14:20:44;;;;;;;0.50;0.50;;;21.50;52.90;;;;;;6272819;28;20096;-65
2021/11/05 14:23:46;;;;;;;0.80;0.57;;;21.50;52.90;;;;;;6261722;28;20035;-66
2021/11/05 14:27:09;;;;;;;0.40;0.38;;;21.40;52.80;;;;;;6265374;28;20410;-65
2021/11/05 14:30:25;;;;;;;0.68;0.50;;;21.50;53.60;;;;;;6252417;28;20503;-66
2021/11/05 14:33:26;;;;;;;0.50;0.40;;;21.50;52.90;;;;;;6273162;28;20033;-65
2021/11/05 14:36:26;;;;;;;0.35;0.30;;;21.50;52.90;;;;;;6271564;28;20032;-65
2021/11/05 14:39:50;;;;;;;0.50;0.38;;;21.50;52.90;;;;;;6273193;28;20036;-66
2021/11/05 14:43:05;;;;;;;0.60;0.43;;;21.50;52.90;;;;;;6265601;28;20025;-65
2021/11/05 14:46:09;;;;;;;0.52;0.45;;;21.50;52.90;;;;;;6249689;28;20445;-65
2021/11/05 14:49:19;;;;;;;0.68;0.50;;;21.40;52.80;;;;;;6272996;28;20034;-65
2021/11/05 14:52:20;;;;;;;0.40;0.40;;;21.50;52.90;;;;;;6270694;28;20025;-65
2021/11/05 14:55:24;;;;;;;0.40;0.32;;;21.50;53.00;;;;;;6272957;28;20077;-65
2021/11/05 14:58:26;;;;;;;1.27;0.50;;;21.50;52.90;;;;;;6272182;28;20409;-65
2021/11/05 15:01:30;;;;;;;0.40;0.40;;;21.50;53.00;;;;;;6272336;28;20505;-65
2021/11/05 15:04:31;;;;;;;0.20;0.20;;;21.50;52.90;;;;;;6272753;28;20478;-65
2021/11/05 15:07:32;;;;;;;0.52;0.40;;;21.50;52.90;;;;;;6272611;28;20075;-65
2021/11/05 15:10:38;;;;;;;0.50;0.50;;;21.50;52.90;;;;;;6249126;28;20029;-65
2021/11/05 15:13:39;;;;;;;0.50;0.40;;;21.50;52.90;;;;;;6265619;28;20053;-65
2021/11/05 15:16:39;;;;;;;0.75;0.40;;;21.50;52.90;;;;;;6269598;28;20026;-65
2021/11/05 15:19:40;;;;;;;0.93;0.60;;;21.50;52.90;;;;;;6247349;28;20381;-65
2021/11/05 15:22:40;;;;;;;1.00;0.50;;;21.50;52.90;;;;;;6247423;28;20491;-65
2021/11/05 15:25:42;;;;;;;0.35;0.35;;;21.50;52.90;;;;;;6254830;28;20036;-65
2021/11/05 15:28:45;;;;;;;0.88;0.43;;;21.50;52.90;;;;;;6272335;28;20052;-65
2021/11/05 15:31:46;;;;;;;0.40;0.40;;;21.50;52.90;;;;;;6236021;28;20041;-65
2021/11/05 15:34:46;;;;;;;0.50;0.40;;;21.50;52.90;;;;;;6247364;28;20017;-65
2021/11/05 15:37:47;;;;;;;0.40;0.32;;;21.50;52.90;;;;;;6246669;28;20065;-65
2021/11/05 15:40:51;;;;;;;0.68;0.45;;;21.50;52.90;;;;;;6248495;28;20030;-65
2021/11/05 15:43:51;;;;;;;0.55;0.40;;;21.50;52.90;;;;;;6271281;28;20037;-65
2021/11/05 15:46:52;;;;;;;0.40;0.30;;;21.50;52.90;;;;;;6270173;28;20032;-65
2021/11/05 15:49:52;;;;;;;0.30;0.30;;;21.50;53.00;;;;;;6271446;28;20040;-65
2021/11/05 15:52:53;;;;;;;0.50;0.47;;;21.50;53.00;;;;;;6271323;28;20025;-65